Airfield :
LOGIN :

Register | Disclaimer

   EN    FR    IT 

 










Legend :    VFR   Marginal VFR   IFR   Intensive IFR   Very Intensive IFR
Visi :
Ceiling :
>= 8 km
>= 3000ft
5 to 8 km
1000 to 3000 ft
1500m to 5 km
500 to 1000 ft
800 to 1500m
200 to 500 ft
< 800m
< 200 ft
Symbols :   Thunderstorms  Fog  Heavy snow  Heavy precipitations  Wind > 20 kt
SIGMETs :     Misc.  Thunderstorms  Icing  Turbulence  Mountain Waves  Volcanic Ashes







- Airport Elevation : 609 ft
- IATA code : BJZ


LEBZ - Badajoz

CURRENT METAR :
  • 242000Z 17001KT CAVOK 20/14 Q1014

EXPIRED METARs :
  • 241900Z 00000KT CAVOK 24/15 Q1013
  • 241800Z 00000KT CAVOK 25/13 Q1013

TAF TAF LEBZ
Valid from the 24 at 18:00 until the 25 at 18:00 UTC


241700Z 2418/2518 06010KT 9999 FEW040 TX28/2516Z TN13/2506Z
TEMPO 2418/2502 34004KT
No reported NOTAMs for that airfield.
2 SIGMETs reported for the Madrid FIR (LECM) :
 
Embedded thunderstorms
LECM SIGMET 8 VALID 242006/242200 LEVA
LECM MADRID FIR/UIR EMBD TS OBS AT 2006Z WI N38 W00640 - N3650 W00640 - N3640 W00530 - N38 W00520 - N38 W00640 TOP FL340 MOV E NC=
Embedded thunderstorms
LECM SIGMET 7 VALID 241900/242100 LEVA
LECM MADRID FIR/UIR EMBD TS OBS AT 1854Z WI N3620 W00620 - N3750 W00510 - N3750 W004 - N3630 W005 - N3620 W00620 TOP FL340 MOV E WKN=



MET'MAP, your aeronautical weather chart ! - Copyright ORBIFLY December 2007 - Disclaimer

ORBIFLY MET'MAP TEAM :

Programming & Development : Alexandra Zaïnal
Concept & Development : Baudouin d'Aumeries
Co-Development & Prog : Marc-Olivier Méhu
Technical & hardware support : Manuel Goepfert

Contact : metmap@orbifly.com




SOURCES & CREDITS :

   NOAA